Time;durP1;ratioP1;P1;durP2;ratioP2;P2;SDS_P1;SDS_P2;PMS_P1;PMS_P2;Temp;Humidity;BMP_temperature;BMP_pressure;BME280_temperature;BME280_humidity;BME280_pressure;Samples;Min_cycle;Max_cycle;Signal;HPM_P1;HPM_P2
2023/11/26 00:00:00;;;;;;;18.93;2.83;;;5.80;99.90;;;;;;5065913;28;37785;-79
2023/11/26 00:02:27;;;;;;;15.07;3.17;;;5.80;99.90;;;;;;5064780;28;38351;-78
2023/11/26 00:04:53;;;;;;;17.23;4.07;;;5.80;99.90;;;;;;5069153;28;37467;-79
2023/11/26 00:07:19;;;;;;;14.37;5.30;;;5.80;99.90;;;;;;5071825;28;39171;-79
2023/11/26 00:09:45;;;;;;;17.03;2.77;;;5.70;99.90;;;;;;5061205;28;38820;-80
2023/11/26 00:12:11;;;;;;;12.77;2.33;;;5.70;99.90;;;;;;5066664;28;37372;-79
2023/11/26 00:14:38;;;;;;;8.90;2.83;;;5.60;99.90;;;;;;5065557;28;37085;-79
2023/11/26 00:17:08;;;;;;;12.93;3.17;;;5.60;99.90;;;;;;5062764;28;38984;-80
2023/11/26 00:19:34;;;;;;;11.20;2.50;;;5.50;99.90;;;;;;5068335;28;38856;-79
2023/11/26 00:22:01;;;;;;;11.40;2.47;;;5.40;99.90;;;;;;5070575;28;39077;-79
2023/11/26 00:24:27;;;;;;;11.30;2.30;;;5.30;99.90;;;;;;5066328;28;47910;-79
2023/11/26 00:26:53;;;;;;;17.20;3.50;;;5.20;99.90;;;;;;5067959;28;38711;-79
2023/11/26 00:29:19;;;;;;;11.57;2.13;;;5.20;99.90;;;;;;5065994;28;37309;-79
2023/11/26 00:31:45;;;;;;;12.30;3.03;;;5.20;99.90;;;;;;5071236;28;37735;-79
2023/11/26 00:34:11;;;;;;;19.23;3.40;;;5.10;99.90;;;;;;5063562;28;37014;-79
2023/11/26 00:36:38;;;;;;;12.20;2.63;;;5.10;99.90;;;;;;5062187;28;39115;-79
2023/11/26 00:39:04;;;;;;;14.73;4.40;;;5.10;99.90;;;;;;5059932;28;37552;-80
2023/11/26 00:41:30;;;;;;;21.37;6.43;;;5.10;99.90;;;;;;5054522;28;37946;-79
2023/11/26 00:43:56;;;;;;;19.10;3.73;;;5.10;99.90;;;;;;5074367;28;37614;-79
2023/11/26 00:46:23;;;;;;;13.27;2.23;;;5.30;99.90;;;;;;5066403;28;38711;-79
2023/11/26 00:48:50;;;;;;;15.07;2.80;;;5.50;99.90;;;;;;5069599;28;37551;-79
2023/11/26 00:51:22;;;;;;;21.37;3.73;;;5.60;99.90;;;;;;5067107;28;38116;-79
2023/11/26 00:53:51;;;;;;;9.88;1.95;;;5.70;99.90;;;;;;5070767;28;36287;-79
2023/11/26 00:56:20;;;;;;;16.43;2.63;;;5.80;99.90;;;;;;5062676;28;38736;-80
2023/11/26 00:58:46;;;;;;;13.10;2.37;;;5.80;99.90;;;;;;5067136;28;38513;-80
2023/11/26 01:01:12;;;;;;;15.23;2.50;;;5.80;99.90;;;;;;5066077;28;38052;-80
2023/11/26 01:03:38;;;;;;;14.77;2.17;;;5.70;99.90;;;;;;5065860;28;36116;-79
2023/11/26 01:06:10;;;;;;;16.30;2.80;;;5.70;99.90;;;;;;5065554;28;38769;-80
2023/11/26 01:08:37;;;;;;;14.77;2.60;;;5.70;99.90;;;;;;5060971;28;37933;-79
2023/11/26 01:11:06;;;;;;;17.20;2.87;;;5.60;99.90;;;;;;5065481;28;38316;-80
2023/11/26 01:13:32;;;;;;;19.07;3.17;;;5.50;99.90;;;;;;5059970;28;36475;-80
2023/11/26 01:16:01;;;;;;;11.50;1.90;;;5.50;99.90;;;;;;5060935;28;38526;-80
2023/11/26 01:18:27;;;;;;;15.37;2.33;;;5.40;99.90;;;;;;5061369;28;46974;-80
2023/11/26 01:20:53;;;;;;;16.70;2.83;;;5.40;99.90;;;;;;5066592;28;38013;-79
2023/11/26 01:23:22;;;;;;;12.00;2.20;;;5.30;99.90;;;;;;5065555;28;38169;-79
2023/11/26 01:25:49;;;;;;;9.20;1.57;;;5.30;99.90;;;;;;5065467;28;40257;-80
2023/11/26 01:28:16;;;;;;;11.40;1.90;;;5.20;99.90;;;;;;5061312;28;38620;-80
2023/11/26 01:30:42;;;;;;;11.67;1.97;;;5.10;99.90;;;;;;5064836;28;36861;-79
2023/11/26 01:33:10;;;;;;;10.97;1.93;;;5.10;99.90;;;;;;5059161;28;37183;-80
2023/11/26 01:35:43;;;;;;;13.93;2.53;;;5.00;99.90;;;;;;5064834;28;38833;-79
2023/11/26 01:38:09;;;;;;;12.48;2.05;;;4.90;99.90;;;;;;5068244;28;38762;-79
2023/11/26 01:40:37;;;;;;;9.27;2.20;;;4.90;99.90;;;;;;5060372;28;38593;-80
2023/11/26 01:43:03;;;;;;;12.03;2.63;;;4.90;99.90;;;;;;5051732;28;36832;-79
2023/11/26 01:45:30;;;;;;;15.77;2.63;;;4.90;99.90;;;;;;5061854;28;38099;-79
2023/11/26 01:48:00;;;;;;;11.33;2.40;;;5.00;99.90;;;;;;5066272;28;37779;-79
2023/11/26 01:50:26;;;;;;;10.17;2.70;;;5.10;99.90;;;;;;5061778;28;37558;-79
2023/11/26 01:52:56;;;;;;;8.67;2.30;;;5.10;99.90;;;;;;5063924;28;36307;-80
2023/11/26 01:55:25;;;;;;;11.03;2.67;;;5.10;99.90;;;;;;5063188;28;38731;-81
2023/11/26 01:57:52;;;;;;;13.13;2.53;;;5.10;99.90;;;;;;5065794;28;39427;-80
2023/11/26 02:02:50;;;;;;;9.73;2.40;;;5.30;99.90;;;;;;5562789;22;49191;-79
2023/11/26 02:05:17;;;;;;;10.87;2.70;;;5.40;99.90;;;;;;5048321;28;39522;-77
2023/11/26 02:07:43;;;;;;;12.03;3.33;;;5.40;99.90;;;;;;5058636;28;39709;-80
2023/11/26 02:10:11;;;;;;;17.13;2.70;;;5.50;99.90;;;;;;5056649;28;38330;-82
2023/11/26 02:12:37;;;;;;;8.93;2.10;;;5.50;99.90;;;;;;5053813;28;38316;-81
2023/11/26 02:15:04;;;;;;;10.83;2.40;;;5.60;99.90;;;;;;5058815;28;39290;-79
2023/11/26 02:17:30;;;;;;;13.40;2.50;;;5.60;99.90;;;;;;5059638;28;38544;-81
2023/11/26 02:20:03;;;;;;;8.93;2.20;;;5.70;99.90;;;;;;5047477;28;38425;-79
2023/11/26 02:22:29;;;;;;;17.23;2.63;;;5.60;99.90;;;;;;5058884;28;47223;-80
2023/11/26 02:24:55;;;;;;;12.53;2.37;;;5.70;99.90;;;;;;5048930;28;37954;-78
2023/11/26 02:27:22;;;;;;;10.97;2.30;;;5.70;99.90;;;;;;5059980;28;39283;-77
2023/11/26 02:29:48;;;;;;;16.53;3.23;;;5.70;99.90;;;;;;5063200;28;38622;-77
2023/11/26 02:32:14;;;;;;;12.83;2.53;;;5.70;99.90;;;;;;5057425;28;37558;-77
2023/11/26 02:34:43;;;;;;;16.47;3.50;;;5.70;99.90;;;;;;5058717;28;40526;-76
2023/11/26 02:37:09;;;;;;;16.37;2.70;;;5.70;99.90;;;;;;5055282;28;38063;-77
2023/11/26 02:39:35;;;;;;;13.50;2.83;;;5.70;99.90;;;;;;5059111;28;38994;-78
2023/11/26 02:42:02;;;;;;;16.80;2.57;;;5.70;99.90;;;;;;5059154;28;37819;-78
2023/11/26 02:44:28;;;;;;;20.10;3.00;;;5.70;99.90;;;;;;5053425;28;47742;-77
2023/11/26 02:46:54;;;;;;;13.43;2.53;;;5.70;99.90;;;;;;5060526;28;39206;-79
2023/11/26 02:49:20;;;;;;;11.70;2.67;;;5.70;99.90;;;;;;5057766;28;39646;-78
2023/11/26 02:51:46;;;;;;;10.13;2.23;;;5.70;99.90;;;;;;5058313;28;36922;-78
2023/11/26 02:54:13;;;;;;;12.27;2.73;;;5.70;99.90;;;;;;5058549;28;38115;-77
2023/11/26 02:56:46;;;;;;;6.87;1.83;;;5.60;99.90;;;;;;5055431;28;38476;-78
2023/11/26 02:59:12;;;;;;;15.30;2.67;;;5.70;99.90;;;;;;5046572;28;38664;-78
2023/11/26 03:01:39;;;;;;;13.87;2.53;;;5.70;99.90;;;;;;5055272;28;37207;-77
2023/11/26 03:04:07;;;;;;;17.80;2.63;;;5.70;99.90;;;;;;5051997;28;39877;-76
2023/11/26 03:06:33;;;;;;;10.53;2.37;;;5.70;99.90;;;;;;5060887;28;38649;-77
2023/11/26 03:09:00;;;;;;;11.10;2.10;;;5.70;99.90;;;;;;5050330;28;38081;-76
2023/11/26 03:14:13;;;;;;;10.13;1.87;;;5.70;99.90;;;;;;5059852;28;39806;-77
2023/11/26 03:16:44;;;;;;;8.07;1.97;;;5.60;99.90;;;;;;5061748;28;39411;-77
2023/11/26 03:19:12;;;;;;;17.63;2.40;;;5.60;99.90;;;;;;5058692;28;36615;-78
2023/11/26 03:21:44;;;;;;;21.67;2.53;;;5.60;99.90;;;;;;5067191;28;38005;-78
2023/11/26 03:24:13;;;;;;;12.23;2.23;;;5.60;99.90;;;;;;5057720;28;39129;-79
2023/11/26 03:26:39;;;;;;;10.63;2.30;;;5.60;99.90;;;;;;5062751;28;37921;-76
2023/11/26 03:29:06;;;;;;;11.97;2.50;;;5.60;99.90;;;;;;5059573;28;38938;-77
2023/11/26 03:31:34;;;;;;;12.07;2.07;;;5.60;99.90;;;;;;5055595;28;36936;-78
2023/11/26 03:34:04;;;;;;;17.37;2.80;;;5.60;99.90;;;;;;5063653;28;42073;-77
2023/11/26 03:36:31;;;;;;;14.30;2.17;;;5.60;99.90;;;;;;5055412;28;48378;-76
2023/11/26 03:38:58;;;;;;;13.97;2.47;;;5.60;99.90;;;;;;5057478;28;38005;-76
2023/11/26 03:41:24;;;;;;;12.20;2.37;;;5.60;99.90;;;;;;5064077;28;37130;-76
2023/11/26 03:43:51;;;;;;;13.67;2.60;;;5.60;99.90;;;;;;5063485;28;40132;-76
2023/11/26 03:46:18;;;;;;;8.97;2.10;;;5.70;99.90;;;;;;5064985;28;39032;-77
2023/11/26 03:48:45;;;;;;;11.87;1.97;;;5.70;99.90;;;;;;5066073;28;37937;-76
2023/11/26 03:51:18;;;;;;;15.30;2.50;;;5.70;99.90;;;;;;5058951;28;38819;-76
2023/11/26 03:53:44;;;;;;;11.03;2.60;;;5.80;99.90;;;;;;5060094;28;38916;-75
2023/11/26 03:56:10;;;;;;;7.87;1.90;;;5.80;99.90;;;;;;5059860;28;39497;-76
2023/11/26 03:58:38;;;;;;;10.27;2.07;;;6.00;99.90;;;;;;5066595;28;38089;-77
2023/11/26 04:01:04;;;;;;;8.93;1.70;;;6.00;99.90;;;;;;5061060;28;38262;-77
2023/11/26 04:03:31;;;;;;;11.70;2.43;;;6.10;99.90;;;;;;5061248;28;38380;-77
2023/11/26 04:05:57;;;;;;;11.57;1.73;;;6.20;99.90;;;;;;5061701;28;39463;-77
2023/11/26 04:08:23;;;;;;;15.13;2.30;;;6.20;99.90;;;;;;5057478;28;37647;-76
2023/11/26 04:10:52;;;;;;;12.87;2.23;;;6.10;99.90;;;;;;5058734;28;37714;-76
2023/11/26 04:13:19;;;;;;;15.80;2.40;;;6.10;99.90;;;;;;5058549;28;39747;-76
2023/11/26 04:15:54;;;;;;;13.77;1.90;;;6.10;99.90;;;;;;5062187;28;39083;-77
2023/11/26 04:18:24;;;;;;;8.47;2.17;;;6.10;99.90;;;;;;5061248;28;37816;-76
2023/11/26 04:20:55;;;;;;;9.13;1.67;;;6.00;99.90;;;;;;5059600;28;37918;-78
2023/11/26 04:23:22;;;;;;;15.33;2.30;;;6.00;99.90;;;;;;5058469;28;41338;-78
2023/11/26 04:25:48;;;;;;;9.40;2.13;;;6.00;99.90;;;;;;5076848;28;37717;-76
2023/11/26 04:28:15;;;;;;;7.60;1.77;;;5.90;99.90;;;;;;5060134;28;39937;-78
2023/11/26 04:30:41;;;;;;;14.30;2.00;;;6.00;99.90;;;;;;5057858;28;37271;-77
2023/11/26 04:33:08;;;;;;;9.03;2.00;;;5.90;99.90;;;;;;5062596;28;37568;-76
2023/11/26 04:35:34;;;;;;;10.53;1.97;;;5.90;99.90;;;;;;5061625;28;39409;-77
2023/11/26 04:38:00;;;;;;;8.53;1.50;;;5.90;99.90;;;;;;5063523;28;38486;-76
2023/11/26 04:40:26;;;;;;;11.07;1.20;;;6.00;99.90;;;;;;5061566;28;38110;-77
2023/11/26 04:42:53;;;;;;;9.97;1.70;;;6.00;99.90;;;;;;5063905;28;39835;-79
2023/11/26 04:45:19;;;;;;;10.50;1.30;;;6.10;99.90;;;;;;5059937;28;37558;-76
2023/11/26 04:47:46;;;;;;;9.77;1.43;;;6.20;99.90;;;;;;5060525;28;38783;-76
2023/11/26 04:50:15;;;;;;;12.27;1.77;;;6.20;99.90;;;;;;5052498;28;36342;-76
2023/11/26 04:52:41;;;;;;;10.63;2.23;;;6.20;99.90;;;;;;5071823;28;41943;-75
2023/11/26 04:55:07;;;;;;;9.70;2.40;;;6.30;99.90;;;;;;5058707;28;38022;-76
2023/11/26 04:57:34;;;;;;;8.83;1.73;;;6.30;99.90;;;;;;5065231;28;38853;-78
2023/11/26 05:00:00;;;;;;;7.40;1.97;;;6.30;99.90;;;;;;5061376;28;37561;-76
2023/11/26 05:02:31;;;;;;;13.83;1.87;;;6.30;99.90;;;;;;5063689;28;38365;-76
2023/11/26 05:04:58;;;;;;;15.83;1.60;;;6.30;99.90;;;;;;5063707;28;39088;-78
2023/11/26 05:07:24;;;;;;;13.73;1.70;;;6.30;99.90;;;;;;5058715;28;38800;-76
2023/11/26 05:09:50;;;;;;;15.30;2.13;;;6.40;99.90;;;;;;5052311;28;36244;-76
2023/11/26 05:12:17;;;;;;;12.10;1.70;;;6.40;99.90;;;;;;5052450;28;40752;-76
2023/11/26 05:14:46;;;;;;;10.27;1.50;;;6.40;99.90;;;;;;5060506;28;40319;-78
2023/11/26 05:17:13;;;;;;;8.03;1.10;;;6.50;99.90;;;;;;5054518;28;37400;-77
2023/11/26 05:19:39;;;;;;;16.20;1.77;;;6.50;99.90;;;;;;5060837;28;37268;-76
2023/11/26 05:22:05;;;;;;;10.70;2.13;;;6.50;99.90;;;;;;5057238;28;37685;-77
2023/11/26 05:24:32;;;;;;;6.37;1.23;;;6.50;99.90;;;;;;5061444;28;38103;-77
2023/11/26 05:26:58;;;;;;;9.60;1.47;;;6.50;99.90;;;;;;5058054;28;36908;-76
2023/11/26 05:29:25;;;;;;;10.03;1.23;;;6.50;99.90;;;;;;5056410;28;35923;-78
2023/11/26 05:31:51;;;;;;;6.50;1.53;;;6.50;99.90;;;;;;5058265;28;39172;-76
2023/11/26 05:34:17;;;;;;;9.23;1.50;;;6.50;99.90;;;;;;5061606;28;39065;-78
2023/11/26 05:36:43;;;;;;;11.80;1.67;;;6.60;99.90;;;;;;5051071;28;38581;-75
2023/11/26 05:39:11;;;;;;;9.43;1.30;;;6.50;99.90;;;;;;5061335;28;35986;-78
2023/11/26 05:41:37;;;;;;;14.73;1.83;;;6.60;99.90;;;;;;5065024;28;39632;-75
2023/11/26 05:44:04;;;;;;;6.60;1.30;;;6.50;99.90;;;;;;5052628;28;38808;-76
2023/11/26 05:46:30;;;;;;;15.30;1.57;;;6.50;99.90;;;;;;5061015;28;38980;-77
2023/11/26 05:48:57;;;;;;;6.63;1.33;;;6.50;99.90;;;;;;5065384;28;37149;-76
2023/11/26 05:51:24;;;;;;;12.30;1.90;;;6.50;99.90;;;;;;5051987;28;40625;-77
2023/11/26 05:53:50;;;;;;;9.40;1.43;;;6.50;99.90;;;;;;5059348;28;38935;-77
2023/11/26 05:56:16;;;;;;;12.37;1.70;;;6.50;99.90;;;;;;5051240;28;37556;-78
2023/11/26 05:58:43;;;;;;;9.97;1.93;;;6.40;99.90;;;;;;5060674;28;38595;-77
2023/11/26 06:01:09;;;;;;;11.43;1.97;;;6.40;99.90;;;;;;5054208;28;38052;-78
2023/11/26 06:03:36;;;;;;;9.90;1.60;;;6.50;99.90;;;;;;5054285;28;38338;-79
2023/11/26 06:06:03;;;;;;;12.90;1.90;;;6.50;99.90;;;;;;5041261;28;36972;-76
2023/11/26 06:08:30;;;;;;;11.87;1.57;;;6.50;99.90;;;;;;5052686;28;38124;-77
2023/11/26 06:10:56;;;;;;;10.43;1.77;;;6.50;99.90;;;;;;5050961;28;39848;-77
2023/11/26 06:13:23;;;;;;;12.73;1.67;;;6.50;99.90;;;;;;5047116;28;38610;-75
2023/11/26 06:15:49;;;;;;;7.60;1.67;;;6.50;99.90;;;;;;5049662;28;38883;-76
2023/11/26 06:18:16;;;;;;;8.37;1.90;;;6.50;99.90;;;;;;5055701;28;38798;-77
2023/11/26 06:20:42;;;;;;;10.20;1.53;;;6.50;99.90;;;;;;5056614;28;39889;-78
2023/11/26 06:23:08;;;;;;;7.63;1.40;;;6.50;99.90;;;;;;5059906;28;38688;-77
2023/11/26 06:25:35;;;;;;;11.73;1.40;;;6.50;99.90;;;;;;5061437;28;38356;-77
2023/11/26 06:28:01;;;;;;;12.40;1.57;;;6.50;99.90;;;;;;5049678;28;35003;-78
2023/11/26 06:30:27;;;;;;;5.20;1.27;;;6.50;99.90;;;;;;5051911;28;39201;-77
2023/11/26 06:32:54;;;;;;;10.77;1.27;;;6.60;99.90;;;;;;5051788;28;38652;-77
2023/11/26 06:35:21;;;;;;;9.07;1.30;;;6.50;99.90;;;;;;5056620;28;37958;-77
2023/11/26 06:37:47;;;;;;;8.67;1.20;;;6.50;99.90;;;;;;5051253;28;37773;-76
2023/11/26 06:40:13;;;;;;;13.77;2.83;;;6.60;99.90;;;;;;5049070;28;40342;-78
2023/11/26 06:42:41;;;;;;;4.13;1.10;;;6.50;99.90;;;;;;5055673;28;40202;-76
2023/11/26 06:45:10;;;;;;;8.87;1.67;;;6.60;99.90;;;;;;5051942;28;39173;-76
2023/11/26 06:47:39;;;;;;;11.43;2.27;;;6.60;99.90;;;;;;5057854;28;37284;-78
2023/11/26 06:50:13;;;;;;;13.37;2.10;;;6.70;99.90;;;;;;5056133;28;39508;-78
2023/11/26 06:52:39;;;;;;;9.03;1.17;;;6.80;99.90;;;;;;5055391;28;40034;-76
2023/11/26 06:55:05;;;;;;;9.73;1.50;;;6.80;99.90;;;;;;5056951;28;37126;-76
2023/11/26 06:57:35;;;;;;;15.33;1.70;;;6.80;99.90;;;;;;5052856;28;37901;-76
2023/11/26 07:00:01;;;;;;;7.13;1.30;;;6.90;99.90;;;;;;5056815;28;39846;-76
2023/11/26 07:02:27;;;;;;;9.70;2.00;;;6.90;99.90;;;;;;5054898;28;38261;-77
2023/11/26 07:04:53;;;;;;;7.03;1.30;;;6.90;99.90;;;;;;5053262;28;37897;-78
2023/11/26 07:07:20;;;;;;;11.67;1.50;;;6.80;99.90;;;;;;5050470;28;37392;-77
2023/11/26 07:09:47;;;;;;;8.50;1.67;;;6.80;99.90;;;;;;5071993;28;39378;-75
2023/11/26 07:12:13;;;;;;;7.93;1.40;;;6.80;99.90;;;;;;5050632;28;39013;-76
2023/11/26 07:14:39;;;;;;;7.57;1.10;;;6.80;99.90;;;;;;5052698;28;38427;-78
2023/11/26 07:17:06;;;;;;;8.03;0.93;;;6.80;99.90;;;;;;5052452;28;37685;-76
2023/11/26 07:19:32;;;;;;;6.77;0.90;;;6.80;99.90;;;;;;5058245;28;38885;-76
2023/11/26 07:21:58;;;;;;;5.37;1.10;;;6.80;99.90;;;;;;5063065;28;37519;-76
2023/11/26 07:24:25;;;;;;;9.83;1.17;;;6.80;99.90;;;;;;5056880;28;37343;-76
2023/11/26 07:26:52;;;;;;;6.63;1.60;;;6.80;99.90;;;;;;5054586;28;38029;-75
2023/11/26 07:29:22;;;;;;;5.63;1.50;;;6.80;99.90;;;;;;5059555;28;40277;-75
2023/11/26 07:31:48;;;;;;;7.17;1.40;;;6.80;99.90;;;;;;5058550;28;39515;-77
2023/11/26 07:34:14;;;;;;;5.60;1.10;;;6.80;99.90;;;;;;5049575;28;36932;-75
2023/11/26 07:36:40;;;;;;;10.10;1.60;;;6.80;99.90;;;;;;5053767;28;38555;-77
2023/11/26 07:39:07;;;;;;;9.83;1.70;;;6.80;99.90;;;;;;5058093;28;37953;-78
2023/11/26 07:41:33;;;;;;;7.63;1.20;;;6.80;99.90;;;;;;5059591;28;38620;-78
2023/11/26 07:44:00;;;;;;;4.97;1.43;;;6.80;99.90;;;;;;5055817;28;37766;-78
2023/11/26 07:46:26;;;;;;;9.83;1.83;;;6.80;99.90;;;;;;5056929;28;38126;-77
2023/11/26 07:48:53;;;;;;;7.67;1.93;;;6.80;99.90;;;;;;5052645;28;40134;-76
2023/11/26 07:51:20;;;;;;;9.03;1.63;;;6.80;99.90;;;;;;5052269;28;40182;-76
2023/11/26 07:53:46;;;;;;;6.93;1.40;;;6.80;99.90;;;;;;5048325;28;38492;-78
2023/11/26 07:56:16;;;;;;;4.77;1.33;;;6.90;99.90;;;;;;5050301;28;37407;-76
2023/11/26 07:58:45;;;;;;;6.80;2.07;;;6.90;99.90;;;;;;5050233;28;38347;-77
2023/11/26 08:01:11;;;;;;;9.93;1.23;;;6.90;99.90;;;;;;5053101;28;40360;-77
2023/11/26 08:03:38;;;;;;;8.50;1.63;;;6.90;99.90;;;;;;5053417;28;37559;-78
2023/11/26 08:06:06;;;;;;;11.87;2.40;;;6.90;99.90;;;;;;5046203;28;37393;-77
2023/11/26 08:08:35;;;;;;;13.60;2.77;;;7.00;99.90;;;;;;5052950;28;40274;-78
2023/11/26 08:11:07;;;;;;;4.43;1.73;;;7.00;99.90;;;;;;5053324;28;37484;-76
2023/11/26 08:13:38;;;;;;;14.15;2.17;;;7.10;99.90;;;;;;5053098;28;48319;-77
2023/11/26 08:16:09;;;;;;;12.87;2.10;;;7.10;99.90;;;;;;5054696;28;36513;-76
2023/11/26 08:18:35;;;;;;;10.10;2.37;;;7.20;99.90;;;;;;5047184;28;36561;-77
2023/11/26 08:21:06;;;;;;;10.50;1.80;;;7.20;99.90;;;;;;5051203;28;37663;-75
2023/11/26 08:23:46;;;;;;;11.43;1.70;;;7.20;99.90;;;;;;5057050;28;37570;-78
2023/11/26 08:26:15;;;;;;;9.20;1.73;;;7.20;99.90;;;;;;5056230;28;36736;-76
2023/11/26 08:28:42;;;;;;;7.50;1.90;;;7.20;99.90;;;;;;5053299;28;38398;-77
2023/11/26 08:31:10;;;;;;;7.80;1.80;;;7.20;99.90;;;;;;5057255;28;39155;-77
2023/11/26 08:33:42;;;;;;;10.23;2.00;;;7.20;99.90;;;;;;5053506;28;37618;-76
2023/11/26 08:36:09;;;;;;;9.60;1.65;;;7.20;99.90;;;;;;5057738;28;36044;-77
2023/11/26 08:38:41;;;;;;;6.93;2.23;;;7.30;99.90;;;;;;5055385;28;37968;-77
2023/11/26 08:41:11;;;;;;;10.13;2.33;;;7.30;99.90;;;;;;5056156;28;37239;-77
2023/11/26 08:43:41;;;;;;;10.10;3.57;;;7.30;99.90;;;;;;5053544;28;38343;-73
2023/11/26 08:46:09;;;;;;;9.07;2.37;;;7.40;99.90;;;;;;5057597;28;36083;-74
2023/11/26 08:48:36;;;;;;;11.10;3.20;;;7.40;99.90;;;;;;5065724;28;37795;-74
2023/11/26 08:51:04;;;;;;;11.00;2.37;;;7.40;99.90;;;;;;5053520;28;39288;-76
2023/11/26 08:53:31;;;;;;;5.57;1.90;;;7.50;99.90;;;;;;5054998;28;47470;-76
2023/11/26 08:55:57;;;;;;;6.80;1.60;;;7.50;99.90;;;;;;5056594;28;36338;-73
2023/11/26 08:58:24;;;;;;;10.80;1.70;;;7.50;99.90;;;;;;5052437;28;37816;-74
2023/11/26 09:00:53;;;;;;;8.57;1.70;;;7.50;99.90;;;;;;5056745;28;38308;-74
2023/11/26 09:03:19;;;;;;;7.63;1.30;;;7.60;99.90;;;;;;5053273;28;37193;-74
2023/11/26 09:05:48;;;;;;;6.73;1.60;;;7.60;99.90;;;;;;5061010;28;37323;-74
2023/11/26 09:08:16;;;;;;;6.43;1.80;;;7.70;99.90;;;;;;5058889;28;37682;-75
2023/11/26 09:10:42;;;;;;;5.07;1.70;;;7.70;99.90;;;;;;5065197;28;37788;-74
2023/11/26 09:13:08;;;;;;;7.30;2.20;;;7.70;99.90;;;;;;5053740;28;38130;-75
2023/11/26 09:15:37;;;;;;;5.43;2.40;;;7.80;99.90;;;;;;5051744;28;38175;-74
2023/11/26 09:18:06;;;;;;;7.73;1.80;;;7.90;99.90;;;;;;5053271;28;40048;-74
2023/11/26 09:20:34;;;;;;;6.83;1.87;;;7.90;99.90;;;;;;5048645;28;40192;-74
2023/11/26 09:23:03;;;;;;;5.80;1.17;;;7.90;99.90;;;;;;5047534;28;40189;-75
2023/11/26 09:25:29;;;;;;;10.30;1.90;;;7.90;99.90;;;;;;5029497;28;47777;-74
2023/11/26 09:27:55;;;;;;;8.10;1.10;;;8.00;99.90;;;;;;5055279;28;38848;-74
2023/11/26 09:30:22;;;;;;;5.60;1.20;;;7.90;99.90;;;;;;5056272;28;38545;-75
2023/11/26 09:32:49;;;;;;;8.17;1.27;;;7.90;99.90;;;;;;5052501;28;38840;-74
2023/11/26 09:35:16;;;;;;;5.60;1.17;;;7.90;99.90;;;;;;5050655;28;38944;-76
2023/11/26 09:37:43;;;;;;;8.53;1.43;;;7.90;99.90;;;;;;5050695;28;40860;-76
2023/11/26 09:40:10;;;;;;;7.77;1.43;;;7.90;99.90;;;;;;5054846;28;38905;-75
2023/11/26 09:42:37;;;;;;;8.03;1.90;;;7.90;99.90;;;;;;5043048;28;38896;-75
2023/11/26 09:45:04;;;;;;;8.27;1.50;;;7.90;99.90;;;;;;5067627;28;34850;-76
2023/11/26 09:47:31;;;;;;;4.63;1.60;;;7.80;99.90;;;;;;5045241;28;37645;-77
2023/11/26 09:49:58;;;;;;;6.93;2.73;;;7.80;99.90;;;;;;5055182;28;36520;-76
2023/11/26 09:52:26;;;;;;;6.70;1.90;;;7.70;99.90;;;;;;5052202;28;39959;-76
2023/11/26 09:54:52;;;;;;;5.90;1.27;;;7.70;99.90;;;;;;5051362;28;37088;-76
2023/11/26 09:57:18;;;;;;;7.07;2.13;;;7.70;99.90;;;;;;5050227;28;38605;-75
2023/11/26 09:59:46;;;;;;;4.73;1.53;;;7.70;99.90;;;;;;5048997;28;38122;-77
2023/11/26 10:02:12;;;;;;;7.77;2.10;;;7.80;99.90;;;;;;5050617;28;37786;-78
2023/11/26 10:04:50;;;;;;;4.37;1.50;;;7.80;99.90;;;;;;5051784;28;36561;-76
2023/11/26 10:07:17;;;;;;;8.07;2.70;;;7.90;99.90;;;;;;5052148;28;38584;-76
2023/11/26 10:10:09;;;;;;;13.63;4.63;;;8.00;99.90;;;;;;5067805;28;38709;-76
2023/11/26 10:12:57;;;;;;;9.90;3.50;;;8.00;99.90;;;;;;5049265;28;47250;-76
2023/11/26 10:15:26;;;;;;;6.80;2.17;;;8.10;99.90;;;;;;5055588;28;37509;-74
2023/11/26 10:18:06;;;;;;;6.70;2.80;;;8.20;99.90;;;;;;5059073;28;40554;-74
2023/11/26 10:20:34;;;;;;;7.73;2.30;;;8.20;99.90;;;;;;5053864;28;47463;-75
2023/11/26 10:23:02;;;;;;;9.33;1.73;;;8.20;99.90;;;;;;5053356;28;38880;-76
2023/11/26 10:25:28;;;;;;;4.37;0.93;;;8.10;99.90;;;;;;5053150;28;47582;-75
2023/11/26 10:27:59;;;;;;;6.50;1.97;;;8.10;99.90;;;;;;5054325;28;37626;-75
2023/11/26 10:30:31;;;;;;;7.17;1.50;;;8.10;99.90;;;;;;5051195;28;38458;-76
2023/11/26 10:33:05;;;;;;;4.13;1.07;;;8.10;99.90;;;;;;5056987;28;39122;-76
2023/11/26 10:35:50;;;;;;;8.53;1.90;;;8.10;99.90;;;;;;5059668;28;48959;-75
2023/11/26 10:38:18;;;;;;;7.83;1.67;;;8.10;99.90;;;;;;5055016;28;39543;-76
2023/11/26 10:40:45;;;;;;;5.17;1.80;;;8.00;99.90;;;;;;5058730;28;37509;-77
2023/11/26 10:43:12;;;;;;;7.87;1.73;;;8.10;99.90;;;;;;5052729;28;38912;-76
2023/11/26 10:45:41;;;;;;;5.23;1.80;;;8.10;99.90;;;;;;5055991;28;38059;-76
2023/11/26 10:48:14;;;;;;;7.23;2.07;;;8.10;99.90;;;;;;5059770;28;37609;-75
2023/11/26 10:50:42;;;;;;;;;;;8.10;99.90;;;;;;5055987;28;38228;-75
2023/11/26 10:53:37;;;;;;;2.73;1.13;;;8.10;99.90;;;;;;5056687;28;40431;-76
2023/11/26 10:56:05;;;;;;;4.13;1.47;;;8.20;99.90;;;;;;5053675;28;38308;-76
2023/11/26 10:58:38;;;;;;;2.60;1.10;;;8.10;99.90;;;;;;5056182;28;37527;-74
2023/11/26 11:01:05;;;;;;;5.05;1.42;;;8.20;99.90;;;;;;5055931;28;41349;-75
2023/11/26 11:03:32;;;;;;;4.80;1.40;;;8.20;99.90;;;;;;5054888;28;38856;-76
2023/11/26 11:06:01;;;;;;;3.93;1.30;;;8.20;99.90;;;;;;5056252;28;37604;-75
2023/11/26 11:08:31;;;;;;;5.97;1.43;;;8.30;99.90;;;;;;5053705;28;47190;-75
2023/11/26 11:11:26;;;;;;;2.90;1.30;;;8.20;99.90;;;;;;5055887;28;38978;-74
2023/11/26 11:13:53;;;;;;;5.07;1.10;;;8.30;99.90;;;;;;5053706;28;48882;-76
2023/11/26 11:16:20;;;;;;;6.17;1.30;;;8.40;99.90;;;;;;5054023;28;36654;-75
2023/11/26 11:18:46;;;;;;;3.17;1.43;;;8.40;99.90;;;;;;5062241;28;38404;-74
2023/11/26 11:21:16;;;;;;;3.77;1.37;;;8.50;99.90;;;;;;5051767;28;39490;-76
2023/11/26 11:23:47;;;;;;;1.87;1.00;;;8.50;99.90;;;;;;5056427;28;35195;-76
2023/11/26 11:26:15;;;;;;;5.43;1.20;;;8.50;99.90;;;;;;5056880;28;39701;-76
2023/11/26 11:28:50;;;;;;;6.27;1.10;;;8.50;99.90;;;;;;5061404;28;37938;-75
2023/11/26 11:31:23;;;;;;;3.90;1.00;;;8.50;99.90;;;;;;5062101;28;38845;-74
2023/11/26 11:33:58;;;;;;;1.60;0.70;;;8.50;99.90;;;;;;5053641;28;38293;-73
2023/11/26 11:36:51;;;;;;;7.70;1.17;;;8.40;99.90;;;;;;5056018;28;38871;-75
2023/11/26 11:39:21;;;;;;;;;;;8.30;99.90;;;;;;5049425;28;38121;-75
2023/11/26 11:41:56;;;;;;;3.47;1.10;;;8.10;99.90;;;;;;5069683;28;38948;-75
2023/11/26 11:44:41;;;;;;;4.73;1.07;;;8.10;99.90;;;;;;5065292;28;38637;-77
2023/11/26 11:47:09;;;;;;;4.63;1.67;;;8.00;99.90;;;;;;5065079;28;37586;-74
2023/11/26 11:49:51;;;;;;;13.83;1.93;;;8.00;99.90;;;;;;5057108;28;39778;-74
2023/11/26 11:52:19;;;;;;;6.60;2.13;;;7.90;99.90;;;;;;5059747;28;39533;-76
2023/11/26 11:54:55;;;;;;;8.23;2.20;;;7.90;99.90;;;;;;5052335;28;38910;-76
2023/11/26 11:57:27;;;;;;;10.97;2.30;;;7.90;99.90;;;;;;5054278;28;38487;-76
2023/11/26 11:59:59;;;;;;;5.65;1.95;;;7.90;99.90;;;;;;5056189;28;41047;-74
2023/11/26 12:02:33;;;;;;;7.38;2.17;;;7.80;99.90;;;;;;5053296;28;38761;-74
2023/11/26 12:04:59;;;;;;;6.40;1.23;;;7.90;99.90;;;;;;5053428;28;37573;-75
2023/11/26 12:07:32;;;;;;;4.67;1.03;;;7.90;99.90;;;;;;5056100;28;39195;-74
2023/11/26 12:10:01;;;;;;;4.27;1.10;;;7.90;99.90;;;;;;5025621;28;38910;-75
2023/11/26 12:12:28;;;;;;;7.30;1.43;;;7.90;99.90;;;;;;5030487;28;37265;-74
2023/11/26 12:14:54;;;;;;;5.73;1.30;;;7.90;99.90;;;;;;5024882;28;37550;-75
2023/11/26 12:17:21;;;;;;;4.17;1.27;;;8.00;99.90;;;;;;5034333;28;38091;-77
2023/11/26 12:19:49;;;;;;;5.17;1.40;;;8.00;99.90;;;;;;5035657;28;38190;-77
2023/11/26 12:22:16;;;;;;;4.33;1.43;;;8.00;99.90;;;;;;5033952;28;38497;-77
2023/11/26 12:24:46;;;;;;;4.73;1.47;;;8.00;99.90;;;;;;5034765;28;37818;-78
2023/11/26 12:27:22;;;;;;;5.80;1.67;;;8.10;99.90;;;;;;5034818;28;38610;-77
2023/11/26 12:29:48;;;;;;;7.37;2.40;;;8.20;99.90;;;;;;5036643;28;38179;-77
2023/11/26 12:32:17;;;;;;;11.20;2.20;;;8.20;99.90;;;;;;5033783;28;38749;-75
2023/11/26 12:34:43;;;;;;;6.83;1.70;;;8.30;99.90;;;;;;5031778;28;37879;-76
2023/11/26 12:37:10;;;;;;;7.30;1.53;;;8.30;99.90;;;;;;5042381;28;36364;-79
2023/11/26 12:39:40;;;;;;;9.10;2.10;;;8.30;99.90;;;;;;5037816;28;37580;-79
2023/11/26 12:42:07;;;;;;;8.70;2.40;;;8.20;99.90;;;;;;5052717;28;37325;-80
2023/11/26 12:44:34;;;;;;;14.50;2.40;;;8.20;99.90;;;;;;5035907;28;40552;-78
2023/11/26 12:47:10;;;;;;;11.87;2.50;;;8.20;99.90;;;;;;5041424;28;37142;-86
2023/11/26 12:49:37;;;;;;;10.90;2.23;;;8.10;99.90;;;;;;5050563;28;49363;-84
2023/11/26 12:52:07;;;;;;;11.43;2.73;;;8.20;99.90;;;;;;5064723;28;37956;-84
2023/11/26 12:54:37;;;;;;;6.47;1.67;;;8.20;99.90;;;;;;5063197;28;37682;-84
2023/11/26 12:57:03;;;;;;;7.53;1.60;;;8.20;99.90;;;;;;5059146;28;37313;-83
2023/11/26 12:59:45;;;;;;;7.77;1.70;;;8.20;99.90;;;;;;5067531;28;38698;-84
2023/11/26 13:02:12;;;;;;;6.13;1.80;;;8.20;99.90;;;;;;5063232;28;39075;-84